^^
Saratoga-Weather Station Historical Data
Daily Summary for April 15, 2021 Units:  Metric    English   Both
Daily Weekly Monthly Yearly Custom
  High: Low: Average:
Temperature: 0 °C -2.1 °C -0.9 °C
Dew Point: -0.4 °C -3.5 °C -1.8 °C
Humidity: 97% 89% 94%
Wind Speed: 0km/h 0km/h 0km/h
Wind Gust: 0km/h - -
Wind- -
Pressure: 1023.7 hPa 1015.2 hPa -
Precipitation: 0.0 mm    
Historical Graphs
 
 
Tabular Data for April 15, 2021
Time Temperature Dew Point Pressure Wind Wind Speed Wind Gust Humidity Rainfall Rate (Hourly) solar
00:03 -0.1 °C -0.5 °C 1015.2 hPa Calm     97% 0.2 mm 0 W/m2
00:08 -0.1 °C -0.5 °C 1015.2 hPa Calm     97% 0.2 mm 0 W/m2
00:13 -0.1 °C -0.5 °C 1015.2 hPa Calm     97% 0.2 mm 0 W/m2
00:18 -0.1 °C -0.5 °C 1015.2 hPa Calm     97% 0.2 mm 0 W/m2
00:23 -0.1 °C -0.5 °C 1015.2 hPa Calm     97% 0.2 mm 0 W/m2
00:28 -0.1 °C -0.5 °C 1015.2 hPa Calm     97% 0.2 mm 0 W/m2
00:33 -0.1 °C -0.5 °C 1015.2 hPa Calm     97% 0.2 mm 0 W/m2
00:38 -0.1 °C -0.5 °C 1015.2 hPa Calm     97% 0.2 mm 0 W/m2
00:43 -0.1 °C -0.5 °C 1015.2 hPa Calm     97% 0.2 mm 0 W/m2
00:48 -0.1 °C -0.5 °C 1015.2 hPa Calm     97% 0.2 mm 0 W/m2
00:53 0 °C -0.4 °C 1015.6 hPa Calm     97% 0.0 mm 0 W/m2
00:58 -0.1 °C -0.5 °C 1015.6 hPa Calm     97% 0.0 mm 0 W/m2
01:03 -0.1 °C -0.5 °C 1015.6 hPa Calm     97% 0.0 mm 0 W/m2
01:08 -0.1 °C -0.5 °C 1015.6 hPa Calm     97% 0.0 mm 0 W/m2
01:13 -0.1 °C -0.5 °C 1015.6 hPa Calm     97% 0.0 mm 0 W/m2
01:18 0 °C -0.4 °C 1015.6 hPa Calm     97% 0.0 mm 0 W/m2
01:23 -0.1 °C -0.5 °C 1015.6 hPa Calm     97% 0.0 mm 0 W/m2
01:28 0 °C -0.4 °C 1015.6 hPa Calm     97% 0.0 mm 0 W/m2
01:34 0 °C -0.4 °C 1015.9 hPa Calm     97% 0.0 mm 0 W/m2
01:39 -0.1 °C -0.5 °C 1015.9 hPa Calm     97% 0.0 mm 0 W/m2
01:44 -0.1 °C -0.5 °C 1015.9 hPa Calm     97% 0.0 mm 0 W/m2
01:49 -0.1 °C -0.5 °C 1015.9 hPa Calm     97% 0.0 mm 0 W/m2
01:54 -0.1 °C -0.5 °C 1015.9 hPa Calm     97% 0.0 mm 0 W/m2
01:59 -0.1 °C -0.5 °C 1015.9 hPa Calm     97% 0.0 mm 0 W/m2
02:04 -0.1 °C -0.5 °C 1015.9 hPa Calm     97% 0.0 mm 0 W/m2
02:09 -0.1 °C -0.5 °C 1016.3 hPa Calm     97% 0.0 mm 0 W/m2
02:14 -0.2 °C -0.6 °C 1016.3 hPa Calm     97% 0.0 mm 0 W/m2
02:19 -0.2 °C -0.6 °C 1016.3 hPa Calm     97% 0.0 mm 0 W/m2
02:24 -0.2 °C -0.6 °C 1016.3 hPa Calm     97% 0.0 mm 0 W/m2
02:29 -0.2 °C -0.6 °C 1016.3 hPa Calm     97% 0.0 mm 0 W/m2
02:34 -0.2 °C -0.6 °C 1016.3 hPa Calm     97% 0.0 mm 0 W/m2
02:39 -0.2 °C -0.6 °C 1016.6 hPa Calm     97% 0.0 mm 0 W/m2
02:44 -0.3 °C -0.7 °C 1016.6 hPa Calm     97% 0.0 mm 0 W/m2
02:49 -0.3 °C -0.7 °C 1016.6 hPa Calm     97% 0.0 mm 0 W/m2
02:54 -0.3 °C -0.7 °C 1016.9 hPa Calm     97% 0.0 mm 0 W/m2
02:59 -0.3 °C -0.7 °C 1016.9 hPa Calm     97% 0.0 mm 0 W/m2
03:04 -0.3 °C -0.7 °C 1016.9 hPa Calm     97% 0.0 mm 0 W/m2
03:09 -0.3 °C -0.7 °C 1016.9 hPa Calm     97% 0.0 mm 0 W/m2
03:14 -0.4 °C -0.8 °C 1016.9 hPa Calm     97% 0.0 mm 0 W/m2
03:19 -0.4 °C -0.8 °C 1017.3 hPa Calm     97% 0.0 mm 0 W/m2
03:24 -0.4 °C -0.8 °C 1017.3 hPa Calm     97% 0.0 mm 0 W/m2
03:29 -0.4 °C -0.8 °C 1017.3 hPa Calm     97% 0.0 mm 0 W/m2
03:34 -0.4 °C -0.8 °C 1017.3 hPa Calm     97% 0.0 mm 0 W/m2
03:39 -0.4 °C -1 °C 1017.6 hPa Calm     96% 0.0 mm 0 W/m2
03:44 -0.4 °C -1 °C 1017.6 hPa Calm     96% 0.0 mm 0 W/m2
03:49 -0.4 °C -1 °C 1017.6 hPa Calm     96% 0.0 mm 0 W/m2
03:54 -0.3 °C -0.9 °C 1018.0 hPa Calm     96% 0.0 mm 0 W/m2
03:59 -0.3 °C -0.9 °C 1018.0 hPa Calm     96% 0.0 mm 0 W/m2
04:04 -0.2 °C -0.8 °C 1018.0 hPa Calm     96% 0.0 mm 0 W/m2
04:09 -0.2 °C -0.9 °C 1018.0 hPa Calm     95% 0.0 mm 0 W/m2
04:14 -0.2 °C -0.9 °C 1018.0 hPa Calm     95% 0.0 mm 0 W/m2
04:19 -0.2 °C -0.9 °C 1018.0 hPa Calm     95% 0.0 mm 0 W/m2
04:24 -0.2 °C -1 °C 1018.0 hPa Calm     94% 0.0 mm 0 W/m2
04:29 -0.1 °C -0.9 °C 1018.3 hPa Calm     94% 0.0 mm 0 W/m2
04:34 -0.2 °C -1.2 °C 1018.3 hPa Calm     93% 0.0 mm 0 W/m2
04:39 -0.2 °C -1.2 °C 1018.3 hPa Calm     93% 0.0 mm 0 W/m2
04:49 -0.3 °C -1.3 °C 1018.6 hPa Calm     93% 0.0 mm 0 W/m2
04:54 -0.4 °C -1.4 °C 1018.6 hPa Calm     93% 0.0 mm 0 W/m2
04:59 -0.4 °C -1.5 °C 1018.6 hPa Calm     92% 0.0 mm 0 W/m2
05:04 -0.5 °C -1.6 °C 1018.6 hPa Calm     92% 0.0 mm 0 W/m2
05:09 -0.6 °C -1.9 °C 1018.6 hPa Calm     91% 0.0 mm 0 W/m2
05:14 -0.7 °C -2 °C 1018.6 hPa Calm     91% 0.0 mm 0 W/m2
05:19 -0.7 °C -2 °C 1018.6 hPa Calm     91% 0.0 mm 0 W/m2
05:24 -0.8 °C -2.1 °C 1019.0 hPa Calm     91% 0.0 mm 0 W/m2
05:29 -0.8 °C -2.1 °C 1019.0 hPa Calm     91% 0.0 mm 0 W/m2
05:34 -0.9 °C -2.2 °C 1019.0 hPa Calm     91% 0.0 mm 0 W/m2
05:39 -1 °C -2.3 °C 1019.0 hPa Calm     91% 0.0 mm 0 W/m2
05:44 -1 °C -2.3 °C 1019.0 hPa Calm     91% 0.0 mm 0 W/m2
05:49 -1.1 °C -2.4 °C 1019.3 hPa Calm     91% 0.0 mm 0 W/m2
05:54 -1.1 °C -2.4 °C 1019.3 hPa Calm     91% 0.0 mm 0 W/m2
05:59 -1.2 °C -2.5 °C 1019.3 hPa Calm     91% 0.0 mm 0 W/m2
06:04 -1.2 °C -2.5 °C 1019.3 hPa Calm     91% 0.0 mm 0 W/m2
06:09 -1.3 °C -2.6 °C 1019.6 hPa Calm     91% 0.0 mm 0 W/m2
06:14 -1.4 °C -2.7 °C 1019.6 hPa Calm     91% 0.0 mm 0 W/m2
06:19 -1.5 °C -2.8 °C 1019.6 hPa Calm     91% 0.0 mm 0 W/m2
06:24 -1.6 °C -2.9 °C 1019.6 hPa Calm     91% 0.0 mm 0 W/m2
06:29 -1.6 °C -2.9 °C 1020.0 hPa Calm     91% 0.0 mm 0 W/m2
06:34 -1.7 °C -3 °C 1020.0 hPa Calm     91% 0.0 mm 0 W/m2
06:39 -1.7 °C -3 °C 1020.0 hPa Calm     91% 0.0 mm 0 W/m2
06:44 -1.7 °C -2.8 °C 1020.3 hPa Calm     92% 0.0 mm 0 W/m2
06:49 -1.8 °C -2.9 °C 1020.3 hPa Calm     92% 0.0 mm 0 W/m2
06:54 -1.8 °C -2.9 °C 1020.3 hPa Calm     92% 0.0 mm 0 W/m2
06:59 -1.8 °C -3.1 °C 1020.3 hPa Calm     91% 0.0 mm 0 W/m2
07:04 -1.8 °C -3.1 °C 1020.3 hPa Calm     91% 0.0 mm 0 W/m2
07:09 -1.9 °C -3.2 °C 1020.7 hPa Calm     91% 0.0 mm 0 W/m2
07:14 -1.9 °C -3.2 °C 1020.7 hPa Calm     91% 0.0 mm 0 W/m2
07:19 -1.9 °C -3.2 °C 1020.7 hPa Calm     91% 0.0 mm 0 W/m2
07:29 -1.9 °C -3.2 °C 1020.7 hPa Calm     91% 0.0 mm 0 W/m2
07:34 -1.9 °C -3.2 °C 1021.0 hPa Calm     91% 0.0 mm 0 W/m2
07:39 -1.9 °C -3.2 °C 1021.0 hPa Calm     91% 0.0 mm 0 W/m2
07:44 -1.9 °C -3.2 °C 1021.0 hPa Calm     91% 0.0 mm 0 W/m2
07:49 -1.9 °C -3.2 °C 1021.3 hPa Calm     91% 0.0 mm 0 W/m2
07:54 -1.9 °C -3.2 °C 1021.3 hPa Calm     91% 0.0 mm 0 W/m2
07:59 -1.9 °C -3.2 °C 1021.3 hPa Calm     91% 0.0 mm 0 W/m2
08:04 -1.9 °C -3.2 °C 1021.3 hPa Calm     91% 0.0 mm 0 W/m2
08:14 -1.9 °C -3.2 °C 1021.7 hPa Calm     91% 0.0 mm 0 W/m2
08:19 -2 °C -3.3 °C 1021.7 hPa Calm     91% 0.0 mm 0 W/m2
08:24 -2 °C -3.3 °C 1022.0 hPa Calm     91% 0.0 mm 0 W/m2
08:29 -2 °C -3.4 °C 1022.0 hPa Calm     90% 0.0 mm 0 W/m2
08:34 -2 °C -3.4 °C 1022.0 hPa Calm     90% 0.0 mm 0 W/m2
08:39 -2.1 °C -3.5 °C 1022.4 hPa Calm     90% 0.0 mm 0 W/m2
08:44 -2.1 °C -3.5 °C 1022.4 hPa Calm     90% 0.0 mm 0 W/m2
08:49 -2.1 °C -3.5 °C 1022.4 hPa Calm     90% 0.0 mm 0 W/m2
08:54 -2.1 °C -3.5 °C 1022.4 hPa Calm     90% 0.0 mm 0 W/m2
09:00 -2.1 °C -3.5 °C 1022.7 hPa Calm     90% 0.0 mm 5 W/m2
09:05 -2 °C -3.4 °C 1022.7 hPa Calm     90% 0.0 mm 5 W/m2
09:10 -1.9 °C -3.3 °C 1022.7 hPa Calm     90% 0.0 mm 7 W/m2
09:15 -1.9 °C -3.3 °C 1022.7 hPa Calm     90% 0.0 mm 7 W/m2
09:20 -1.9 °C -3.3 °C 1023.0 hPa Calm     90% 0.0 mm 9 W/m2
09:25 -1.9 °C -3.3 °C 1023.0 hPa Calm     90% 0.0 mm 9 W/m2
09:30 -1.9 °C -3.3 °C 1023.0 hPa Calm     90% 0.0 mm 11 W/m2
09:35 -1.8 °C -3.2 °C 1023.4 hPa Calm     90% 0.0 mm 11 W/m2
09:40 -1.8 °C -3.2 °C 1023.4 hPa Calm     90% 0.0 mm 11 W/m2
09:50 -1.7 °C -3.1 °C 1023.4 hPa Calm     90% 0.0 mm 11 W/m2
09:55 -1.7 °C -3.3 °C 1023.4 hPa Calm     89% 0.0 mm 11 W/m2
10:00 -1.7 °C -3.3 °C 1023.7 hPa Calm     89% 0.0 mm 11 W/m2
Juneau County Weather
Compliments of Weather Underground - 2 mb